createdAt,value
2024-04-16T00:02:23.820Z,98891.38
2024-04-16T00:04:50.864Z,98879.06
2024-04-16T00:07:17.649Z,98879.41
2024-04-16T00:09:44.427Z,98891.34
2024-04-16T00:12:11.170Z,98891.63
2024-04-16T00:15:05.124Z,98883.41
2024-04-16T00:17:34.831Z,98885.53
2024-04-16T00:20:01.799Z,98879.97
2024-04-16T00:22:28.728Z,98879.81
2024-04-16T00:24:55.407Z,98861.03
2024-04-16T00:27:22.172Z,98866.66
2024-04-16T00:29:48.883Z,98864.38
2024-04-16T00:32:15.605Z,98874.72
2024-04-16T00:34:42.378Z,98863.53
2024-04-16T00:37:09.253Z,98861.63
2024-04-16T00:39:36.322Z,98864.00
2024-04-16T00:42:03.334Z,98859.88
2024-04-16T00:44:30.046Z,98855.09
2024-04-16T00:46:57.027Z,98859.44
2024-04-16T00:49:24.178Z,98860.72
2024-04-16T00:51:52.613Z,98853.88
2024-04-16T00:54:19.824Z,98852.00
2024-04-16T00:56:46.936Z,98855.50
2024-04-16T00:59:15.081Z,98852.47
2024-04-16T01:01:41.895Z,98844.31
2024-04-16T01:04:08.843Z,98846.94
2024-04-16T01:06:37.055Z,98842.91
2024-04-16T01:09:04.146Z,98839.22
2024-04-16T01:11:31.223Z,98832.06
2024-04-16T01:13:58.328Z,98835.38
2024-04-16T01:16:25.538Z,98843.41
2024-04-16T01:18:52.494Z,98847.91
2024-04-16T01:21:19.183Z,98852.31
2024-04-16T01:23:45.890Z,98847.16
2024-04-16T01:26:12.763Z,98837.28
2024-04-16T01:28:39.481Z,98838.09
2024-04-16T01:31:06.193Z,98829.50
2024-04-16T01:33:32.889Z,98831.66
2024-04-16T01:36:00.436Z,98829.34
2024-04-16T01:38:27.223Z,98820.94
2024-04-16T01:40:53.946Z,98824.59
2024-04-16T01:43:20.895Z,98825.09
2024-04-16T01:45:47.621Z,98819.50
2024-04-16T01:48:14.474Z,98821.06
2024-04-16T01:50:41.450Z,98827.31
2024-04-16T01:53:08.519Z,98817.84
2024-04-16T01:55:36.109Z,98821.91
2024-04-16T01:58:04.254Z,98818.56
2024-04-16T02:00:30.990Z,98828.72
2024-04-16T02:03:01.197Z,98820.34
2024-04-16T02:05:28.520Z,98823.19
2024-04-16T02:07:55.316Z,98819.47
2024-04-16T02:10:22.409Z,98829.25
2024-04-16T02:12:49.343Z,98824.34
2024-04-16T02:15:16.095Z,98821.91
2024-04-16T02:17:42.941Z,98822.59
2024-04-16T02:20:10.274Z,98820.56
2024-04-16T02:22:37.013Z,98819.47
2024-04-16T02:25:04.277Z,98824.03
2024-04-16T02:27:30.980Z,98813.38
2024-04-16T02:29:57.687Z,98817.78
2024-04-16T02:32:24.464Z,98813.38
2024-04-16T02:34:51.193Z,98810.72
2024-04-16T02:37:17.872Z,98820.44
2024-04-16T02:39:44.605Z,98804.78
2024-04-16T02:42:12.113Z,98810.75
2024-04-16T02:44:38.953Z,98810.41
2024-04-16T02:47:06.460Z,98811.53
2024-04-16T02:49:33.496Z,98813.38
2024-04-16T02:52:00.383Z,98812.88
2024-04-16T02:54:27.086Z,98810.75
2024-04-16T02:56:53.797Z,98807.31
2024-04-16T02:59:20.512Z,98805.31
2024-04-16T03:01:47.303Z,98811.22
2024-04-16T03:04:14.072Z,98810.50
2024-04-16T03:06:40.795Z,98815.34
2024-04-16T03:09:08.120Z,98805.13
2024-04-16T03:11:34.924Z,98804.38
2024-04-16T03:14:02.345Z,98797.25
2024-04-16T03:16:29.099Z,98798.19
2024-04-16T03:18:55.827Z,98804.75
2024-04-16T03:21:25.554Z,98796.22
2024-04-16T03:23:52.791Z,98795.31
2024-04-16T03:26:19.532Z,98802.44
2024-04-16T03:28:46.216Z,98801.53
2024-04-16T03:31:12.949Z,98789.75
2024-04-16T03:33:39.718Z,98795.13
2024-04-16T03:36:06.664Z,98796.41
2024-04-16T03:38:33.478Z,98794.84
2024-04-16T03:41:04.342Z,98794.59
2024-04-16T03:43:33.071Z,98788.63
2024-04-16T03:46:00.865Z,98793.72
2024-04-16T03:48:27.739Z,98792.72
2024-04-16T03:50:54.654Z,98795.66
2024-04-16T03:53:21.535Z,98793.00
2024-04-16T03:55:48.296Z,98792.56
2024-04-16T03:58:15.262Z,98781.09
2024-04-16T04:01:01.062Z,98782.13
2024-04-16T04:03:28.319Z,98788.28
2024-04-16T04:05:55.761Z,98785.53
2024-04-16T04:08:22.830Z,98797.88
2024-04-16T04:10:49.721Z,98791.34
2024-04-16T04:13:16.522Z,98799.72
2024-04-16T04:15:43.581Z,98799.53
2024-04-16T04:18:11.265Z,98799.22
2024-04-16T04:20:41.255Z,98799.63
2024-04-16T04:23:08.799Z,98817.69
2024-04-16T04:25:35.767Z,98822.09
2024-04-16T04:28:02.861Z,98814.78
2024-04-16T04:30:29.734Z,98817.31
2024-04-16T04:32:57.453Z,98819.03
2024-04-16T04:35:24.189Z,98820.06
2024-04-16T04:37:50.950Z,98812.00
2024-04-16T04:40:17.841Z,98821.06
2024-04-16T04:42:44.683Z,98824.72
2024-04-16T04:45:11.394Z,98825.38
2024-04-16T04:47:38.284Z,98825.59
2024-04-16T04:50:05.599Z,98832.59
2024-04-16T04:52:32.977Z,98822.66
2024-04-16T04:55:03.222Z,98830.53
2024-04-16T04:57:30.002Z,98841.53
2024-04-16T04:59:56.716Z,98837.50
2024-04-16T05:02:23.455Z,98839.09
2024-04-16T05:04:50.254Z,98838.47
2024-04-16T05:07:17.031Z,98842.94
2024-04-16T05:09:43.769Z,98845.91
2024-04-16T05:12:12.525Z,98843.03
2024-04-16T05:14:40.605Z,98856.34
2024-04-16T05:17:07.274Z,98849.81
2024-04-16T05:19:34.770Z,98848.28
2024-04-16T05:22:01.655Z,98851.00
2024-04-16T05:24:28.411Z,98858.81
2024-04-16T05:26:55.122Z,98859.72
2024-04-16T05:29:21.839Z,98852.00
2024-04-16T05:31:48.561Z,98846.50
2024-04-16T05:34:15.882Z,98845.97
2024-04-16T05:36:42.594Z,98853.13
2024-04-16T05:39:09.475Z,98855.56
2024-04-16T05:41:36.140Z,98851.44
2024-04-16T05:44:02.879Z,98861.00
2024-04-16T05:46:29.583Z,98863.00
2024-04-16T05:48:56.324Z,98861.25
2024-04-16T05:51:23.156Z,98864.66
2024-04-16T05:53:49.904Z,98866.13
2024-04-16T05:56:16.899Z,98878.81
2024-04-16T05:58:43.788Z,98876.22
2024-04-16T06:01:10.655Z,98873.81
2024-04-16T06:03:37.424Z,98861.94
2024-04-16T06:06:04.366Z,98871.25
2024-04-16T06:08:31.245Z,98874.25
2024-04-16T06:10:58.110Z,98881.75
2024-04-16T06:13:24.837Z,98885.44
2024-04-16T06:15:51.624Z,98875.63
2024-04-16T06:18:18.361Z,98880.59
2024-04-16T06:20:45.099Z,98873.75
2024-04-16T06:23:11.769Z,98872.66
2024-04-16T06:25:40.273Z,98872.63
2024-04-16T06:28:07.091Z,98868.22
2024-04-16T06:30:33.826Z,98863.19
2024-04-16T06:33:00.698Z,98871.47
2024-04-16T06:35:27.474Z,98870.16
2024-04-16T06:37:54.170Z,98858.50
2024-04-16T06:40:20.842Z,98861.75
2024-04-16T06:42:47.639Z,98864.28
2024-04-16T06:45:14.324Z,98858.44
2024-04-16T06:47:41.129Z,98869.59
2024-04-16T06:50:08.153Z,98867.13
2024-04-16T06:52:34.977Z,98867.75
2024-04-16T06:55:01.722Z,98866.28
2024-04-16T06:57:28.673Z,98873.66
2024-04-16T06:59:55.519Z,98872.97
2024-04-16T07:02:22.306Z,98867.81
2024-04-16T07:04:49.006Z,98873.56
2024-04-16T07:07:15.722Z,98874.97
2024-04-16T07:09:44.410Z,98883.94
2024-04-16T07:12:11.125Z,98882.78
2024-04-16T07:14:37.883Z,98888.44
2024-04-16T07:17:05.242Z,98889.19
2024-04-16T07:19:31.935Z,98884.56
2024-04-16T07:21:58.651Z,98881.41
2024-04-16T07:24:25.374Z,98888.41
2024-04-16T07:26:52.420Z,98885.91
2024-04-16T07:29:19.198Z,98883.38
2024-04-16T07:31:49.863Z,98882.09
2024-04-16T07:34:17.490Z,98873.91
2024-04-16T07:36:44.191Z,98884.75
2024-04-16T07:39:11.447Z,98879.94
2024-04-16T07:41:38.185Z,98870.94
2024-04-16T07:44:04.879Z,98879.00
2024-04-16T07:46:34.755Z,98876.72
2024-04-16T07:49:01.816Z,98876.59
2024-04-16T07:51:28.589Z,98872.22
2024-04-16T07:53:55.293Z,98884.06
2024-04-16T07:56:22.619Z,98874.06
2024-04-16T07:58:49.604Z,98881.09
2024-04-16T08:01:18.146Z,98884.38
2024-04-16T08:03:45.229Z,98892.81
2024-04-16T08:06:12.119Z,98890.22
2024-04-16T08:08:39.434Z,98897.69
2024-04-16T08:11:15.717Z,98905.75
2024-04-16T08:13:42.786Z,98905.31
2024-04-16T08:16:09.972Z,98906.34
2024-04-16T08:18:37.126Z,98915.63
2024-04-16T08:21:03.857Z,98905.16
2024-04-16T08:23:30.931Z,98907.09
2024-04-16T08:26:07.880Z,98915.78
2024-04-16T08:28:37.035Z,98914.84
2024-04-16T08:31:04.398Z,98914.09
2024-04-16T08:33:31.444Z,98917.50
2024-04-16T08:35:58.903Z,98919.09
2024-04-16T08:38:26.619Z,98917.69
2024-04-16T08:40:53.735Z,98923.06
2024-04-16T08:43:21.905Z,98935.19
2024-04-16T08:45:50.706Z,98938.69
2024-04-16T08:48:19.096Z,98939.28
2024-04-16T08:50:47.336Z,98940.00
2024-04-16T08:53:14.817Z,98939.41
2024-04-16T08:55:43.038Z,98943.22
2024-04-16T08:58:10.240Z,98951.22
2024-04-16T09:00:37.371Z,98954.16
2024-04-16T09:03:04.984Z,98957.56
2024-04-16T09:05:31.862Z,98954.44
2024-04-16T09:07:58.543Z,98953.97
2024-04-16T09:10:26.270Z,98957.34
2024-04-16T09:12:54.911Z,98957.97
2024-04-16T09:15:22.273Z,98948.91
2024-04-16T09:17:56.435Z,98966.53
2024-04-16T09:20:26.629Z,98962.38
2024-04-16T09:22:54.366Z,98970.25
2024-04-16T09:25:26.260Z,98970.09
2024-04-16T09:27:57.851Z,98976.00
2024-04-16T09:30:25.267Z,98973.19
2024-04-16T09:33:00.443Z,98974.88
2024-04-16T09:35:28.670Z,98980.75
2024-04-16T09:38:01.745Z,98979.28
2024-04-16T09:40:31.033Z,98986.13
2024-04-16T09:43:02.166Z,98983.69
2024-04-16T09:45:31.523Z,98987.56
2024-04-16T09:47:59.741Z,98992.38
2024-04-16T09:50:42.146Z,98994.38
2024-04-16T09:53:19.164Z,98990.38
2024-04-16T09:55:47.570Z,98999.59
2024-04-16T09:58:18.319Z,98997.81
2024-04-16T10:00:45.536Z,99002.25
2024-04-16T10:03:13.420Z,99002.91
2024-04-16T10:05:40.148Z,99001.53
2024-04-16T10:08:07.412Z,98995.16
2024-04-16T10:10:34.576Z,99001.06
2024-04-16T10:13:02.942Z,99004.63
2024-04-16T10:15:29.955Z,99001.06
2024-04-16T10:17:57.753Z,98997.22
2024-04-16T10:20:29.520Z,98997.28
2024-04-16T10:23:01.527Z,98997.03
2024-04-16T10:25:33.880Z,99003.81
2024-04-16T10:28:03.833Z,99003.84
2024-04-16T10:30:32.376Z,99002.56
2024-04-16T10:33:02.672Z,99011.41
2024-04-16T10:35:30.132Z,99000.38
2024-04-16T10:37:57.927Z,99001.69
2024-04-16T10:40:29.134Z,99005.09
2024-04-16T10:43:01.583Z,99010.00
2024-04-16T10:45:30.319Z,99013.34
2024-04-16T10:47:58.724Z,99013.56
2024-04-16T10:50:25.601Z,99014.66
2024-04-16T10:52:52.796Z,99019.03
2024-04-16T10:55:19.603Z,99022.41
2024-04-16T10:57:46.795Z,99027.22
2024-04-16T11:00:16.750Z,99024.50
2024-04-16T11:02:43.919Z,99023.25
2024-04-16T11:05:10.723Z,99028.25
2024-04-16T11:07:38.238Z,99027.41
2024-04-16T11:10:05.934Z,99036.03
2024-04-16T11:12:32.902Z,99029.28
2024-04-16T11:14:59.814Z,99042.47
2024-04-16T11:17:29.878Z,99045.06
2024-04-16T11:19:57.642Z,99054.13
2024-04-16T11:22:25.666Z,99048.53
2024-04-16T11:24:54.688Z,99048.88
2024-04-16T11:27:23.766Z,99053.84
2024-04-16T11:29:51.096Z,99059.25
2024-04-16T11:32:18.852Z,99057.00
2024-04-16T11:34:46.978Z,99066.47
2024-04-16T11:37:17.283Z,99058.44
2024-04-16T11:39:44.633Z,99059.69
2024-04-16T11:42:12.547Z,99053.28
2024-04-16T11:44:40.400Z,99054.31
2024-04-16T11:47:11.295Z,99060.69
2024-04-16T11:49:41.613Z,99068.56
2024-04-16T11:52:08.478Z,99068.38
2024-04-16T11:54:36.780Z,99073.53
2024-04-16T11:57:05.496Z,99081.59
2024-04-16T11:59:32.772Z,99071.88
2024-04-16T12:01:59.975Z,99074.56
2024-04-16T12:04:27.951Z,99084.44
2024-04-16T12:06:55.574Z,99085.22
2024-04-16T12:09:22.253Z,99092.88
2024-04-16T12:11:49.013Z,99090.69
2024-04-16T12:14:15.970Z,99087.16
2024-04-16T12:16:42.746Z,99085.78
2024-04-16T12:19:10.096Z,99082.16
2024-04-16T12:21:37.320Z,99086.97
2024-04-16T12:24:04.605Z,99090.50
2024-04-16T12:26:31.288Z,99097.53
2024-04-16T12:28:59.870Z,99099.00
2024-04-16T12:31:27.114Z,99095.25
2024-04-16T12:33:54.290Z,99102.72
2024-04-16T12:36:21.056Z,99101.06
2024-04-16T12:38:47.756Z,99099.38
2024-04-16T12:41:14.427Z,99112.41
2024-04-16T12:43:41.237Z,99105.78
2024-04-16T12:46:08.690Z,99107.69
2024-04-16T12:48:36.573Z,99120.50
2024-04-16T12:51:03.474Z,99113.00
2024-04-16T12:53:30.711Z,99122.88
2024-04-16T12:55:57.406Z,99137.75
2024-04-16T12:58:24.099Z,99129.84
2024-04-16T13:00:50.875Z,99129.72
2024-04-16T13:03:17.836Z,99137.34
2024-04-16T13:05:46.003Z,99138.53
2024-04-16T13:08:14.713Z,99140.22
2024-04-16T13:10:42.759Z,99134.75
2024-04-16T13:13:09.550Z,99142.31
2024-04-16T13:15:36.255Z,99136.09
2024-04-16T13:18:03.998Z,99148.31
2024-04-16T13:20:31.068Z,99136.03
2024-04-16T13:22:57.780Z,99155.22
2024-04-16T13:25:24.618Z,99148.63
2024-04-16T13:27:51.422Z,99150.34
2024-04-16T13:30:18.222Z,99146.31
2024-04-16T13:32:45.440Z,99145.44
2024-04-16T13:35:12.376Z,99154.22
2024-04-16T13:37:39.255Z,99157.00
2024-04-16T13:40:09.940Z,99154.69
2024-04-16T13:42:38.617Z,99160.03
2024-04-16T13:45:06.428Z,99158.78
2024-04-16T13:47:33.518Z,99164.25
2024-04-16T13:50:00.328Z,99169.22
2024-04-16T13:52:27.164Z,99170.31
2024-04-16T13:54:53.870Z,99179.41
2024-04-16T13:57:20.552Z,99183.56
2024-04-16T13:59:47.528Z,99181.53
2024-04-16T14:02:14.453Z,99186.59
2024-04-16T14:04:41.359Z,99193.94
2024-04-16T14:07:08.150Z,99185.84
2024-04-16T14:09:35.349Z,99191.50
2024-04-16T14:12:02.112Z,99190.03
2024-04-16T14:14:28.828Z,99191.72
2024-04-16T14:16:55.603Z,99186.94
2024-04-16T14:19:22.445Z,99182.75
2024-04-16T14:21:49.568Z,99183.16
2024-04-16T14:24:20.117Z,99196.00
2024-04-16T14:26:46.786Z,99200.22
2024-04-16T14:29:13.504Z,99199.88
2024-04-16T14:31:41.243Z,99204.78
2024-04-16T14:34:08.148Z,99209.75
2024-04-16T14:36:34.950Z,99202.28
2024-04-16T14:39:01.844Z,99213.59
2024-04-16T14:41:29.601Z,99212.81
2024-04-16T14:43:56.292Z,99218.28
2024-04-16T14:46:23.421Z,99211.34
2024-04-16T14:48:50.340Z,99216.06
2024-04-16T14:51:17.117Z,99215.84
2024-04-16T14:53:47.516Z,99222.69
2024-04-16T14:56:14.391Z,99219.09
2024-04-16T14:58:41.273Z,99227.84
2024-04-16T15:01:08.097Z,99224.94
2024-04-16T15:03:35.739Z,99231.75
2024-04-16T15:06:02.545Z,99235.31
2024-04-16T15:08:29.274Z,99233.47
2024-04-16T15:10:56.009Z,99248.84
2024-04-16T15:13:23.456Z,99251.19
2024-04-16T15:15:59.863Z,99263.22
2024-04-16T15:18:27.610Z,99264.25
2024-04-16T15:20:55.115Z,99273.88
2024-04-16T15:23:21.793Z,99275.16
2024-04-16T15:25:48.678Z,99282.91
2024-04-16T15:28:16.446Z,99279.66
2024-04-16T15:30:43.363Z,99277.56
2024-04-16T15:33:10.403Z,99275.28
2024-04-16T15:35:47.787Z,99279.53
2024-04-16T15:38:14.867Z,99281.59
2024-04-16T15:40:42.033Z,99293.28
2024-04-16T15:43:08.892Z,99295.94
2024-04-16T15:45:35.631Z,99305.69
2024-04-16T15:48:02.405Z,99306.41
2024-04-16T15:50:29.223Z,99305.09
2024-04-16T15:52:56.781Z,99326.13
2024-04-16T15:55:23.523Z,99333.41
2024-04-16T15:57:50.197Z,99333.72
2024-04-16T16:00:17.597Z,99331.34
2024-04-16T16:02:46.577Z,99331.53
2024-04-16T16:05:13.568Z,99334.78
2024-04-16T16:07:40.318Z,99339.31
2024-04-16T16:10:10.263Z,99352.00
2024-04-16T16:12:37.294Z,99361.88
2024-04-16T16:15:04.160Z,99361.38
2024-04-16T16:17:30.988Z,99360.34
2024-04-16T16:19:58.186Z,99363.34
2024-04-16T16:22:25.076Z,99365.13
2024-04-16T16:24:52.683Z,99367.16
2024-04-16T16:27:19.713Z,99361.41
2024-04-16T16:29:46.497Z,99365.34
2024-04-16T16:32:15.210Z,99367.16
2024-04-16T16:34:42.414Z,99371.78
2024-04-16T16:37:09.278Z,99370.06
2024-04-16T16:39:36.016Z,99367.94
2024-04-16T16:42:02.670Z,99382.25
2024-04-16T16:44:29.391Z,99370.44
2024-04-16T16:46:56.136Z,99379.34
2024-04-16T16:49:22.846Z,99381.19
2024-04-16T16:51:51.971Z,99386.25
2024-04-16T16:54:18.700Z,99389.84
2024-04-16T16:56:45.381Z,99393.91
2024-04-16T16:59:12.067Z,99381.19
2024-04-16T17:01:38.869Z,99388.53
2024-04-16T17:04:05.642Z,99386.88
2024-04-16T17:06:32.550Z,99385.44
2024-04-16T17:08:59.799Z,99387.34
2024-04-16T17:11:26.489Z,99392.03
2024-04-16T17:13:53.261Z,99396.03
2024-04-16T17:16:20.100Z,99408.38
2024-04-16T17:18:46.890Z,99411.56
2024-04-16T17:21:13.622Z,99417.56
2024-04-16T17:23:40.415Z,99420.63
2024-04-16T17:26:07.522Z,99426.44
2024-04-16T17:28:34.334Z,99424.22
2024-04-16T17:31:01.101Z,99430.34
2024-04-16T17:33:27.903Z,99431.97
2024-04-16T17:35:54.648Z,99432.94
2024-04-16T17:38:21.489Z,99434.22
2024-04-16T17:40:48.476Z,99443.00
2024-04-16T17:43:15.364Z,99449.84
2024-04-16T17:45:42.154Z,99461.84
2024-04-16T17:48:09.978Z,99464.53
2024-04-16T17:50:37.342Z,99462.38
2024-04-16T17:53:04.195Z,99466.22
2024-04-16T17:55:31.378Z,99473.81
2024-04-16T17:57:58.247Z,99474.38
2024-04-16T18:00:26.780Z,99484.63
2024-04-16T18:02:53.690Z,99491.69
2024-04-16T18:05:20.890Z,99490.16
2024-04-16T18:07:47.737Z,99505.34
2024-04-16T18:10:15.496Z,99512.56
2024-04-16T18:12:42.232Z,99506.88
2024-04-16T18:15:10.052Z,99520.59
2024-04-16T18:17:37.112Z,99524.41
2024-04-16T18:20:04.310Z,99527.94
2024-04-16T18:22:31.740Z,99531.09
2024-04-16T18:24:58.603Z,99530.34
2024-04-16T18:27:25.493Z,99529.44
2024-04-16T18:29:52.235Z,99546.31
2024-04-16T18:32:19.058Z,99554.97
2024-04-16T18:34:47.918Z,99558.16
2024-04-16T18:37:16.110Z,99567.00
2024-04-16T18:39:42.911Z,99571.53
2024-04-16T18:42:10.865Z,99571.66
2024-04-16T18:44:38.131Z,99571.69
2024-04-16T18:47:06.111Z,99573.16
2024-04-16T18:49:33.096Z,99576.63
2024-04-16T18:51:59.841Z,99583.31
2024-04-16T18:54:26.737Z,99575.56
2024-04-16T18:56:53.690Z,99583.19
2024-04-16T18:59:20.756Z,99591.41
2024-04-16T19:01:47.584Z,99589.72
2024-04-16T19:04:14.467Z,99593.22
2024-04-16T19:06:41.876Z,99599.22
2024-04-16T19:09:08.811Z,99597.25
2024-04-16T19:11:38.286Z,99607.06
2024-04-16T19:14:05.413Z,99611.41
2024-04-16T19:16:32.246Z,99599.53
2024-04-16T19:18:59.013Z,99605.25
2024-04-16T19:21:25.667Z,99610.94
2024-04-16T19:23:52.534Z,99614.09
2024-04-16T19:26:19.434Z,99615.09
2024-04-16T19:28:46.820Z,99620.63
2024-04-16T19:31:13.627Z,99621.44
2024-04-16T19:33:40.715Z,99623.28
2024-04-16T19:36:08.008Z,99631.97
2024-04-16T19:38:36.122Z,99632.44
2024-04-16T19:41:02.884Z,99628.63
2024-04-16T19:43:29.594Z,99634.16
2024-04-16T19:45:57.190Z,99632.16
2024-04-16T19:48:24.062Z,99634.84
2024-04-16T19:50:50.758Z,99636.16
2024-04-16T19:53:17.508Z,99636.84
2024-04-16T19:55:45.278Z,99643.50
2024-04-16T19:58:12.054Z,99638.16
2024-04-16T20:00:38.914Z,99642.19
2024-04-16T20:03:05.893Z,99640.16
2024-04-16T20:05:36.276Z,99650.19
2024-04-16T20:08:03.477Z,99657.38
2024-04-16T20:10:30.310Z,99653.34
2024-04-16T20:12:57.764Z,99657.53
2024-04-16T20:15:24.584Z,99664.88
2024-04-16T20:17:51.504Z,99655.03
2024-04-16T20:20:18.513Z,99656.50
2024-04-16T20:22:47.700Z,99657.69
2024-04-16T20:25:18.831Z,99660.84
2024-04-16T20:27:46.013Z,99664.19
2024-04-16T20:30:13.018Z,99663.50
2024-04-16T20:32:39.832Z,99661.47
2024-04-16T20:35:06.672Z,99661.41
2024-04-16T20:37:33.409Z,99666.69
2024-04-16T20:40:00.258Z,99666.31
2024-04-16T20:42:27.101Z,99671.22
2024-04-16T20:44:53.796Z,99673.03
2024-04-16T20:47:20.520Z,99676.00
2024-04-16T20:49:47.799Z,99674.50
2024-04-16T20:52:14.560Z,99685.28
2024-04-16T20:54:41.291Z,99680.84
2024-04-16T20:57:07.992Z,99685.06
2024-04-16T20:59:35.134Z,99675.47
2024-04-16T21:02:03.755Z,99682.84
2024-04-16T21:04:30.471Z,99680.03
2024-04-16T21:06:57.355Z,99676.47
2024-04-16T21:09:24.040Z,99681.16
2024-04-16T21:11:50.730Z,99678.13
2024-04-16T21:14:17.503Z,99686.44
2024-04-16T21:16:44.274Z,99679.72
2024-04-16T21:19:10.943Z,99681.06
2024-04-16T21:21:38.151Z,99687.25
2024-04-16T21:24:05.953Z,99682.53
2024-04-16T21:26:32.766Z,99691.31
2024-04-16T21:28:59.658Z,99693.34
2024-04-16T21:31:26.461Z,99698.19
2024-04-16T21:33:53.155Z,99699.94
2024-04-16T21:36:19.866Z,99700.94
2024-04-16T21:38:46.542Z,99700.59
2024-04-16T21:41:13.196Z,99698.41
2024-04-16T21:43:40.929Z,99703.69
2024-04-16T21:46:07.716Z,99702.91
2024-04-16T21:48:34.463Z,99704.13
2024-04-16T21:51:01.158Z,99692.16
2024-04-16T21:53:28.011Z,99695.16
2024-04-16T21:55:54.826Z,99695.16
2024-04-16T21:58:21.539Z,99702.19
2024-04-16T22:00:48.250Z,99701.31
2024-04-16T22:03:15.189Z,99705.69
2024-04-16T22:05:41.993Z,99701.88
2024-04-16T22:08:08.719Z,99708.00
2024-04-16T22:10:35.546Z,99711.31
2024-04-16T22:13:02.292Z,99717.81
2024-04-16T22:15:29.025Z,99719.66
2024-04-16T22:17:55.813Z,99713.84
2024-04-16T22:20:22.617Z,99720.34
2024-04-16T22:22:49.371Z,99729.00
2024-04-16T22:25:16.094Z,99725.97
2024-04-16T22:27:42.766Z,99730.41
2024-04-16T22:30:09.950Z,99736.69
2024-04-16T22:32:36.773Z,99742.84
2024-04-16T22:35:03.633Z,99739.59
2024-04-16T22:37:30.748Z,99742.13
2024-04-16T22:39:57.444Z,99740.47
2024-04-16T22:42:24.173Z,99746.41
2024-04-16T22:44:50.891Z,99754.00
2024-04-16T22:47:17.597Z,99750.91
2024-04-16T22:49:44.347Z,99756.53
2024-04-16T22:52:11.027Z,99759.97
2024-04-16T22:54:37.767Z,99754.34
2024-04-16T22:57:04.647Z,99754.94
2024-04-16T22:59:31.395Z,99750.81
2024-04-16T23:02:01.100Z,99752.00
2024-04-16T23:04:29.315Z,99746.50
2024-04-16T23:06:56.224Z,99755.16
2024-04-16T23:09:22.931Z,99756.72
2024-04-16T23:11:49.741Z,99759.56
2024-04-16T23:14:16.423Z,99760.81
2024-04-16T23:16:43.496Z,99758.47
2024-04-16T23:19:10.167Z,99759.31
2024-04-16T23:21:37.900Z,99757.66
2024-04-16T23:24:04.846Z,99760.13
2024-04-16T23:26:31.586Z,99761.06
2024-04-16T23:28:58.377Z,99756.75
2024-04-16T23:31:25.120Z,99757.78
2024-04-16T23:33:51.806Z,99765.00
2024-04-16T23:36:18.956Z,99762.78
2024-04-16T23:38:45.649Z,99765.28
2024-04-16T23:41:12.333Z,99771.38
2024-04-16T23:43:39.078Z,99764.84
2024-04-16T23:46:05.861Z,99764.78
2024-04-16T23:48:32.776Z,99770.31
2024-04-16T23:50:59.843Z,99760.06
2024-04-16T23:53:26.555Z,99763.16
2024-04-16T23:55:53.368Z,99756.47
2024-04-16T23:58:20.120Z,99758.38
